Fisher, Pennsylvania
Current Conditions -  °F | °C
As of 8:09 AM on Thursday 30 Oct 2014 (Local Time) from KDUJ Reporting Station
Overcast Overcast  
Wind Chill: 36°   Ceiling: 1600
Heat Index: 41°   Visibility: 10mi
Dew Point: 38°   Wind: 7mph
Humidity: 89%   Direction: 290°WNW
Pressure: 30.03"   Gusts: NA
Location:  41.26°N, 79.24°W
Report Text: KDUJ 301209Z AUTO 29006KT 10SM SCT010 BKN016 OVC021 05/03 A3003 RMK AO2 T00500033
Loading
Personal Weather Stations






























Interactive Weather Map
Tropical Storm Tracking
New forecast layout! Learn more

10-Day Weather Forecast

Advertisements
Track Severe Weather on mobile